createdAt,value
2017-07-22T00:00:29.820Z,20.20
2017-07-22T00:02:56.217Z,20.30
2017-07-22T00:05:22.659Z,20.30
2017-07-22T00:07:59.248Z,20.30
2017-07-22T00:10:27.918Z,20.30
2017-07-22T00:12:54.492Z,20.20
2017-07-22T00:15:37.692Z,20.30
2017-07-22T00:18:04.070Z,20.20
2017-07-22T00:20:30.794Z,20.30
2017-07-22T00:23:07.291Z,20.30
2017-07-22T00:25:38.068Z,20.40
2017-07-22T00:28:11.095Z,20.30
2017-07-22T00:30:37.469Z,20.30
2017-07-22T00:33:03.852Z,20.30
2017-07-22T00:35:42.253Z,20.20
2017-07-22T00:38:10.060Z,20.20
2017-07-22T00:40:36.641Z,20.10
2017-07-22T00:43:17.282Z,20.10
2017-07-22T00:45:43.876Z,20.00
2017-07-22T00:48:12.605Z,20.00
2017-07-22T00:50:39.358Z,20.10
2017-07-22T00:53:05.627Z,20.20
2017-07-22T00:55:34.322Z,19.80
2017-07-22T00:58:12.703Z,19.50
2017-07-22T01:00:46.915Z,19.40
2017-07-22T01:03:15.222Z,19.30
2017-07-22T01:05:41.828Z,19.50
2017-07-22T01:08:20.492Z,19.60
2017-07-22T01:10:46.979Z,19.60
2017-07-22T01:21:32.352Z,19.70
2017-07-22T01:24:12.167Z,19.40
2017-07-22T01:26:52.174Z,19.60
2017-07-22T01:35:14.738Z,19.60
2017-07-22T01:37:41.338Z,19.60
2017-07-22T01:40:07.704Z,19.70
2017-07-22T01:42:34.088Z,19.70
2017-07-22T01:45:00.760Z,19.70
2017-07-22T01:47:28.136Z,20.00
2017-07-22T01:49:55.605Z,19.80
2017-07-22T01:52:21.848Z,20.10
2017-07-22T01:54:48.079Z,20.10
2017-07-22T01:57:14.295Z,20.00
2017-07-22T01:59:40.628Z,20.20
2017-07-22T02:02:07.023Z,20.20
2017-07-22T02:04:33.470Z,20.20
2017-07-22T02:06:59.730Z,20.20
2017-07-22T02:09:25.955Z,20.10
2017-07-22T02:11:52.215Z,19.60
2017-07-22T02:14:18.445Z,19.40
2017-07-22T02:16:44.659Z,19.20
2017-07-22T02:19:10.884Z,19.70
2017-07-22T02:21:37.099Z,19.90
2017-07-22T02:24:03.976Z,19.90
2017-07-22T02:26:30.619Z,19.70
2017-07-22T02:28:56.996Z,19.40
2017-07-22T02:33:55.561Z,19.10
2017-07-22T02:39:14.956Z,19.50
2017-07-22T02:41:44.241Z,19.60
2017-07-22T02:44:10.502Z,19.60
2017-07-22T02:46:40.856Z,19.50
2017-07-22T02:49:07.259Z,19.50
2017-07-22T02:51:53.588Z,19.50
2017-07-22T02:54:19.964Z,19.60
2017-07-22T02:56:46.283Z,19.60
2017-07-22T02:59:20.379Z,19.60
2017-07-22T03:01:56.765Z,19.60
2017-07-22T03:04:23.132Z,19.40
2017-07-22T03:06:49.961Z,19.40
2017-07-22T03:11:57.641Z,19.60
2017-07-22T03:17:23.089Z,19.60
2017-07-22T03:22:52.688Z,19.40
2017-07-22T03:25:20.949Z,19.10
2017-07-22T03:27:47.274Z,18.90
2017-07-22T03:33:19.226Z,19.20
2017-07-22T03:38:38.163Z,19.20
2017-07-22T03:41:19.861Z,19.30
2017-07-22T03:46:38.771Z,18.80
2017-07-22T03:49:05.215Z,18.80
2017-07-22T04:12:44.463Z,19.10
2017-07-22T04:18:03.809Z,19.40
2017-07-22T04:20:30.195Z,19.10
2017-07-22T04:22:56.561Z,19.00
2017-07-22T04:25:29.119Z,19.10
2017-07-22T04:30:34.084Z,19.20
2017-07-22T04:33:01.162Z,19.30
2017-07-22T04:35:27.536Z,19.30
2017-07-22T04:37:54.708Z,19.50
2017-07-22T04:46:07.239Z,19.10
2017-07-22T04:48:34.744Z,19.10
2017-07-22T04:51:01.044Z,18.90
2017-07-22T04:53:50.933Z,19.10
2017-07-22T04:59:18.904Z,18.80
2017-07-22T05:01:45.307Z,18.70
2017-07-22T05:04:16.261Z,18.70
2017-07-22T05:06:42.488Z,19.00
2017-07-22T05:09:10.285Z,19.20
2017-07-22T05:11:36.763Z,19.20
2017-07-22T05:14:03.692Z,19.50
2017-07-22T05:16:31.511Z,19.40
2017-07-22T05:18:58.469Z,19.50
2017-07-22T05:21:24.918Z,19.50
2017-07-22T05:23:51.155Z,19.50
2017-07-22T05:26:18.315Z,19.80
2017-07-22T05:28:44.617Z,19.70
2017-07-22T05:31:10.922Z,19.70
2017-07-22T05:33:37.321Z,19.50
2017-07-22T05:36:03.713Z,19.40
2017-07-22T05:38:30.091Z,19.40
2017-07-22T05:40:56.376Z,19.20
2017-07-22T05:43:22.684Z,19.20
2017-07-22T05:45:49.096Z,19.20
2017-07-22T05:48:15.433Z,19.30
2017-07-22T05:53:12.801Z,19.40
2017-07-22T05:55:39.130Z,19.30
2017-07-22T05:58:05.393Z,19.40
2017-07-22T06:00:31.745Z,19.30
2017-07-22T06:02:58.096Z,19.30
2017-07-22T06:05:24.453Z,19.50
2017-07-22T06:07:50.737Z,19.50
2017-07-22T06:10:17.080Z,19.60
2017-07-22T06:12:43.380Z,19.60
2017-07-22T06:15:09.735Z,19.60
2017-07-22T06:17:36.016Z,19.60
2017-07-22T06:20:02.409Z,19.60
2017-07-22T06:22:28.833Z,19.70
2017-07-22T06:24:55.152Z,19.70
2017-07-22T06:27:21.452Z,19.70
2017-07-22T06:29:47.801Z,19.60
2017-07-22T06:32:14.351Z,19.60
2017-07-22T06:34:40.701Z,19.70
2017-07-22T06:37:07.113Z,19.70
2017-07-22T06:39:33.435Z,19.80
2017-07-22T06:41:59.714Z,19.90
2017-07-22T06:44:26.172Z,20.00
2017-07-22T06:46:53.264Z,20.20
2017-07-22T06:49:19.632Z,20.40
2017-07-22T06:51:46.034Z,20.50
2017-07-22T06:54:12.628Z,20.60
2017-07-22T06:56:38.939Z,20.80
2017-07-22T06:59:05.279Z,20.70
2017-07-22T07:01:31.643Z,20.70
2017-07-22T07:03:58.244Z,20.60
2017-07-22T07:06:24.527Z,20.50
2017-07-22T07:08:50.713Z,20.50
2017-07-22T07:11:16.855Z,20.40
2017-07-22T07:13:43.218Z,20.40
2017-07-22T07:16:09.392Z,20.40
2017-07-22T07:18:35.579Z,20.50
2017-07-22T07:21:01.830Z,20.50
2017-07-22T07:23:28.024Z,20.50
2017-07-22T07:25:54.207Z,20.70
2017-07-22T07:28:20.533Z,20.90
2017-07-22T07:30:46.691Z,20.80
2017-07-22T07:33:12.961Z,20.70
2017-07-22T07:35:39.213Z,20.70
2017-07-22T07:38:10.125Z,20.70
2017-07-22T07:40:36.581Z,20.70
2017-07-22T07:43:04.399Z,20.90
2017-07-22T07:45:31.802Z,21.00
2017-07-22T07:47:58.159Z,21.10
2017-07-22T07:50:24.608Z,21.10
2017-07-22T07:52:50.924Z,21.20
2017-07-22T07:55:17.086Z,21.10
2017-07-22T07:57:43.285Z,21.10
2017-07-22T08:00:10.534Z,21.10
2017-07-22T08:02:39.548Z,21.00
2017-07-22T08:05:05.942Z,21.10
2017-07-22T08:07:32.868Z,21.20
2017-07-22T08:10:00.506Z,21.30
2017-07-22T08:12:26.733Z,21.40
2017-07-22T08:14:53.076Z,21.40
2017-07-22T08:17:19.443Z,21.40
2017-07-22T08:19:45.887Z,21.50
2017-07-22T08:22:13.103Z,21.50
2017-07-22T08:24:39.443Z,21.50
2017-07-22T08:27:05.760Z,21.60
2017-07-22T08:29:35.497Z,21.50
2017-07-22T08:32:01.792Z,21.60
2017-07-22T08:34:28.255Z,21.70
2017-07-22T08:36:55.020Z,21.70
2017-07-22T08:41:54.444Z,21.90
2017-07-22T08:44:21.072Z,22.10
2017-07-22T08:46:47.394Z,22.10
2017-07-22T08:49:13.740Z,22.10
2017-07-22T08:51:51.329Z,22.10
2017-07-22T08:54:17.633Z,22.10
2017-07-22T08:56:43.852Z,22.10
2017-07-22T08:59:10.818Z,22.30
2017-07-22T09:01:37.305Z,22.30
2017-07-22T09:04:03.525Z,22.40
2017-07-22T09:06:29.832Z,22.40
2017-07-22T09:12:14.894Z,22.50
2017-07-22T09:14:42.992Z,22.40
2017-07-22T09:17:09.922Z,22.40
2017-07-22T09:19:38.345Z,22.50
2017-07-22T09:22:04.652Z,22.50
2017-07-22T09:27:24.618Z,22.50
2017-07-22T09:30:17.115Z,22.50
2017-07-22T09:35:45.379Z,22.70
2017-07-22T09:38:12.235Z,22.70
2017-07-22T09:40:40.540Z,22.70
2017-07-22T09:43:06.939Z,22.70
2017-07-22T09:45:33.264Z,22.80
2017-07-22T09:48:00.927Z,22.80
2017-07-22T09:50:27.593Z,22.80
2017-07-22T09:53:08.467Z,22.90
2017-07-22T09:55:43.380Z,22.90
2017-07-22T09:58:09.972Z,22.90
2017-07-22T10:00:36.349Z,22.90
2017-07-22T10:03:03.876Z,23.10
2017-07-22T10:05:43.931Z,23.10
2017-07-22T10:08:10.212Z,23.10
2017-07-22T10:10:37.161Z,23.20
2017-07-22T10:13:07.227Z,23.30
2017-07-22T10:15:33.813Z,23.40
2017-07-22T10:18:00.896Z,23.50
2017-07-22T10:20:29.492Z,23.50
2017-07-22T10:22:56.221Z,23.60
2017-07-22T10:25:22.976Z,23.60
2017-07-22T10:27:49.997Z,23.70
2017-07-22T10:30:16.651Z,23.80
2017-07-22T10:32:47.939Z,23.90
2017-07-22T10:35:16.442Z,24.00
2017-07-22T10:43:09.449Z,24.20
2017-07-22T10:45:40.157Z,24.20
2017-07-22T10:50:40.925Z,24.00
2017-07-22T10:53:07.516Z,24.00
2017-07-22T10:55:33.875Z,24.10
2017-07-22T10:58:06.718Z,24.00
2017-07-22T11:00:34.378Z,24.10
2017-07-22T11:03:01.141Z,24.10
2017-07-22T11:05:28.190Z,24.20
2017-07-22T11:07:55.032Z,24.20
2017-07-22T11:10:21.954Z,24.20
2017-07-22T11:12:49.564Z,24.20
2017-07-22T11:18:11.340Z,24.00
2017-07-22T11:20:43.199Z,24.00
2017-07-22T11:23:10.297Z,24.00
2017-07-22T11:28:24.283Z,24.00
2017-07-22T11:31:04.686Z,24.00
2017-07-22T11:33:31.725Z,24.00
2017-07-22T11:36:00.612Z,24.00
2017-07-22T11:38:27.416Z,24.00
2017-07-22T11:40:58.171Z,24.00
2017-07-22T11:49:18.678Z,23.80
2017-07-22T11:54:33.831Z,23.80
2017-07-22T11:59:53.181Z,23.70
2017-07-22T12:02:21.355Z,23.60
2017-07-22T12:04:51.487Z,23.40
2017-07-22T12:07:19.233Z,23.30
2017-07-22T12:09:45.670Z,23.10
2017-07-22T12:12:11.999Z,23.00
2017-07-22T12:14:38.693Z,22.80
2017-07-22T12:17:05.541Z,22.50
2017-07-22T12:19:32.203Z,22.50
2017-07-22T12:21:58.375Z,22.30
2017-07-22T12:24:27.188Z,22.30
2017-07-22T12:26:53.836Z,22.30
2017-07-22T12:29:20.079Z,22.20
2017-07-22T12:31:46.276Z,21.90
2017-07-22T12:34:12.581Z,22.10
2017-07-22T12:36:38.811Z,22.40
2017-07-22T12:39:07.239Z,22.80
2017-07-22T12:41:41.187Z,23.20
2017-07-22T12:44:07.695Z,23.70
2017-07-22T12:46:34.492Z,24.20
2017-07-22T12:49:01.144Z,24.50
2017-07-22T12:51:27.640Z,24.80
2017-07-22T12:53:54.357Z,25.00
2017-07-22T12:56:20.835Z,25.30
2017-07-22T12:58:47.336Z,25.60
2017-07-22T13:06:39.438Z,26.00
2017-07-22T13:09:11.813Z,26.00
2017-07-22T13:11:38.841Z,26.00
2017-07-22T13:14:06.813Z,26.10
2017-07-22T13:16:34.546Z,26.10
2017-07-22T13:19:11.663Z,26.00
2017-07-22T13:21:41.260Z,25.90
2017-07-22T13:29:54.033Z,25.90
2017-07-22T13:32:23.228Z,25.80
2017-07-22T13:35:04.012Z,25.60
2017-07-22T13:37:41.044Z,25.40
2017-07-22T13:40:07.280Z,25.30
2017-07-22T13:42:33.458Z,25.30
2017-07-22T13:45:00.031Z,25.10
2017-07-22T13:47:29.427Z,25.00
2017-07-22T13:49:55.893Z,24.90
2017-07-22T13:52:22.586Z,24.90
2017-07-22T13:54:52.710Z,24.90
2017-07-22T13:57:22.028Z,24.90
2017-07-22T13:59:48.428Z,24.70
2017-07-22T14:02:14.897Z,24.50
2017-07-22T14:04:41.672Z,24.50
2017-07-22T14:07:07.996Z,24.60
2017-07-22T14:12:27.352Z,24.30
2017-07-22T14:14:53.553Z,24.10
2017-07-22T14:17:19.745Z,24.00
2017-07-22T14:19:46.133Z,24.10
2017-07-22T14:22:13.286Z,24.20
2017-07-22T14:24:39.617Z,23.90
2017-07-22T14:27:10.301Z,23.50
2017-07-22T14:29:43.579Z,23.50
2017-07-22T14:32:09.887Z,23.80
2017-07-22T14:34:36.381Z,23.90
2017-07-22T14:37:02.904Z,24.10
2017-07-22T14:39:31.694Z,24.20
2017-07-22T14:42:00.151Z,24.20
2017-07-22T14:44:27.424Z,24.00
2017-07-22T14:46:53.674Z,23.90
2017-07-22T14:52:12.715Z,23.90
2017-07-22T14:54:44.502Z,24.10
2017-07-22T14:57:23.934Z,24.20
2017-07-22T14:59:50.396Z,24.10
2017-07-22T15:02:16.748Z,24.20
2017-07-22T15:04:43.451Z,24.30
2017-07-22T15:07:16.163Z,24.30
2017-07-22T15:09:42.596Z,24.30
2017-07-22T15:12:09.068Z,24.30
2017-07-22T15:14:45.472Z,24.30
2017-07-22T15:17:13.055Z,24.30
2017-07-22T15:19:39.549Z,24.30
2017-07-22T15:27:44.936Z,24.40
2017-07-22T15:30:11.274Z,24.50
2017-07-22T15:32:37.816Z,24.50
2017-07-22T15:35:04.416Z,24.30
2017-07-22T15:37:32.841Z,24.40
2017-07-22T15:40:01.232Z,24.50
2017-07-22T15:42:58.915Z,24.60
2017-07-22T15:48:03.845Z,24.50
2017-07-22T15:50:30.349Z,24.50
2017-07-22T15:55:49.410Z,24.30
2017-07-22T15:58:17.005Z,24.40
2017-07-22T16:03:53.374Z,24.30
2017-07-22T16:06:22.029Z,24.30
2017-07-22T16:14:40.998Z,23.60
2017-07-22T16:17:14.122Z,23.80
2017-07-22T16:19:40.698Z,23.50
2017-07-22T16:22:07.327Z,23.70
2017-07-22T16:30:13.695Z,23.90
2017-07-22T16:32:40.023Z,23.70
2017-07-22T16:35:06.472Z,23.70
2017-07-22T16:37:48.480Z,23.70
2017-07-22T16:40:14.642Z,23.70
2017-07-22T16:42:42.720Z,23.60
2017-07-22T16:45:09.627Z,23.40
2017-07-22T16:47:36.223Z,23.10
2017-07-22T16:50:03.689Z,22.90
2017-07-22T16:55:22.424Z,22.60
2017-07-22T17:00:44.087Z,22.50
2017-07-22T17:03:12.465Z,22.60
2017-07-22T17:05:44.615Z,22.50
2017-07-22T17:08:11.123Z,22.70
2017-07-22T17:10:44.332Z,22.70
2017-07-22T17:13:11.065Z,22.70
2017-07-22T17:15:37.388Z,22.60
2017-07-22T17:18:03.620Z,22.70
2017-07-22T17:20:30.023Z,22.70
2017-07-22T17:22:56.420Z,22.90
2017-07-22T17:25:22.617Z,22.90
2017-07-22T17:27:48.755Z,22.80
2017-07-22T17:30:15.212Z,22.50
2017-07-22T17:32:41.524Z,22.30
2017-07-22T17:35:07.867Z,22.10
2017-07-22T17:37:34.054Z,22.00
2017-07-22T17:40:00.280Z,21.90
2017-07-22T17:42:26.439Z,21.80
2017-07-22T17:44:52.944Z,21.80
2017-07-22T17:47:19.970Z,21.90
2017-07-22T17:49:46.516Z,22.10
2017-07-22T17:52:13.392Z,22.20
2017-07-22T17:54:41.255Z,22.10
2017-07-22T17:57:07.480Z,22.00
2017-07-22T17:59:34.347Z,22.00
2017-07-22T18:02:04.242Z,22.10
2017-07-22T18:04:30.797Z,22.30
2017-07-22T18:06:57.048Z,22.60
2017-07-22T18:09:23.368Z,22.50
2017-07-22T18:11:49.693Z,22.50
2017-07-22T18:14:16.001Z,22.20
2017-07-22T18:16:42.760Z,22.20
2017-07-22T18:19:35.410Z,22.20
2017-07-22T18:22:01.775Z,22.00
2017-07-22T18:24:28.343Z,21.70
2017-07-22T18:26:56.887Z,21.70
2017-07-22T18:29:23.131Z,21.60
2017-07-22T18:31:49.284Z,21.60
2017-07-22T18:34:15.416Z,21.70
2017-07-22T18:36:41.614Z,21.80
2017-07-22T18:39:07.775Z,21.70
2017-07-22T18:41:33.942Z,21.70
2017-07-22T18:44:00.923Z,21.80
2017-07-22T18:46:27.070Z,21.90
2017-07-22T18:48:53.259Z,21.90
2017-07-22T18:51:19.447Z,21.90
2017-07-22T18:53:45.609Z,21.90
2017-07-22T18:56:11.825Z,21.90
2017-07-22T18:58:38.025Z,21.90
2017-07-22T19:01:04.204Z,21.90
2017-07-22T19:03:30.396Z,21.80
2017-07-22T19:05:56.951Z,21.70
2017-07-22T19:08:23.108Z,21.50
2017-07-22T19:10:49.280Z,21.30
2017-07-22T19:13:15.470Z,21.20
2017-07-22T19:15:41.961Z,21.30
2017-07-22T19:18:09.873Z,21.30
2017-07-22T19:20:36.272Z,21.30
2017-07-22T19:23:02.739Z,21.40
2017-07-22T19:25:28.985Z,21.30
2017-07-22T19:27:55.166Z,21.30
2017-07-22T19:30:21.311Z,21.20
2017-07-22T19:32:47.543Z,21.10
2017-07-22T19:35:13.687Z,21.20
2017-07-22T19:37:39.862Z,21.30
2017-07-22T19:40:06.016Z,21.40
2017-07-22T19:42:32.175Z,21.40
2017-07-22T19:44:58.368Z,21.40
2017-07-22T19:47:24.559Z,21.50
2017-07-22T19:49:50.834Z,21.40
2017-07-22T19:52:17.003Z,21.20
2017-07-22T19:54:43.217Z,21.20
2017-07-22T19:57:09.419Z,21.40
2017-07-22T19:59:35.712Z,21.40
2017-07-22T20:02:01.928Z,21.50
2017-07-22T20:04:28.157Z,21.20
2017-07-22T20:06:55.310Z,21.10
2017-07-22T20:09:21.543Z,20.90
2017-07-22T20:11:47.926Z,20.90
2017-07-22T20:14:14.084Z,21.10
2017-07-22T20:16:40.235Z,21.10
2017-07-22T20:19:06.401Z,21.10
2017-07-22T20:21:32.670Z,20.90
2017-07-22T20:23:58.970Z,20.80
2017-07-22T20:26:25.195Z,20.70
2017-07-22T20:28:51.408Z,20.70
2017-07-22T20:31:17.576Z,20.60
2017-07-22T20:33:43.788Z,20.50
2017-07-22T20:36:09.943Z,20.40
2017-07-22T20:38:36.079Z,20.20
2017-07-22T20:41:02.228Z,20.10
2017-07-22T20:43:28.445Z,20.20
2017-07-22T20:45:54.603Z,20.20
2017-07-22T20:48:21.023Z,20.20
2017-07-22T20:50:47.445Z,20.20
2017-07-22T20:53:13.758Z,20.30
2017-07-22T20:55:40.092Z,20.20
2017-07-22T20:58:06.261Z,20.20
2017-07-22T21:00:32.415Z,20.20
2017-07-22T21:02:58.819Z,20.20
2017-07-22T21:05:24.970Z,20.20
2017-07-22T21:07:51.119Z,20.20
2017-07-22T21:10:17.299Z,20.10
2017-07-22T21:12:43.484Z,20.00
2017-07-22T21:15:09.619Z,20.00
2017-07-22T21:17:37.286Z,19.90
2017-07-22T21:20:03.455Z,19.80
2017-07-22T21:22:29.600Z,19.70
2017-07-22T21:24:55.743Z,19.60
2017-07-22T21:27:21.923Z,19.70
2017-07-22T21:29:48.056Z,19.70
2017-07-22T21:32:14.223Z,19.70
2017-07-22T21:34:40.375Z,19.80
2017-07-22T21:37:06.567Z,19.60
2017-07-22T21:39:32.703Z,19.60
2017-07-22T21:41:58.844Z,19.60
2017-07-22T21:47:17.823Z,19.50
2017-07-22T21:52:38.363Z,19.50
2017-07-22T21:55:05.507Z,19.50
2017-07-22T21:57:31.852Z,19.70
2017-07-22T22:00:13.302Z,20.10
2017-07-22T22:02:39.576Z,20.10
2017-07-22T22:07:58.230Z,20.10
2017-07-22T22:10:24.426Z,19.80
2017-07-22T22:12:50.579Z,19.70
2017-07-22T22:15:16.771Z,19.60
2017-07-22T22:17:42.906Z,19.70
2017-07-22T22:20:09.066Z,19.70
2017-07-22T22:22:35.239Z,19.70
2017-07-22T22:25:01.408Z,19.50
2017-07-22T22:27:27.564Z,19.50
2017-07-22T22:29:53.736Z,19.60
2017-07-22T22:32:19.875Z,19.50
2017-07-22T22:34:46.069Z,19.50
2017-07-22T22:37:12.201Z,19.60
2017-07-22T22:39:38.344Z,19.60
2017-07-22T22:42:04.533Z,19.70
2017-07-22T22:44:30.801Z,19.70
2017-07-22T22:49:51.391Z,19.70
2017-07-22T22:52:17.925Z,19.80
2017-07-22T22:57:46.108Z,20.00
2017-07-22T23:08:53.772Z,19.60
2017-07-22T23:11:29.769Z,19.60
2017-07-22T23:14:21.539Z,19.50
2017-07-22T23:17:03.233Z,19.60
2017-07-22T23:28:15.810Z,19.50
2017-07-22T23:30:42.825Z,19.50
2017-07-22T23:33:25.140Z,19.50
2017-07-22T23:35:57.878Z,19.50
2017-07-22T23:38:29.670Z,19.40
2017-07-22T23:40:57.434Z,19.40
2017-07-22T23:43:32.549Z,19.30
2017-07-22T23:45:58.933Z,19.30
2017-07-22T23:48:25.221Z,19.30
2017-07-22T23:51:03.773Z,19.30
2017-07-22T23:53:33.266Z,19.30
2017-07-22T23:55:59.628Z,19.30
2017-07-22T23:58:30.257Z,19.30
